Time;durP1;ratioP1;P1;durP2;ratioP2;P2;SDS_P1;SDS_P2;PMS_P1;PMS_P2;Temp;Humidity;BMP_temperature;BMP_pressure;BME280_temperature;BME280_humidity;BME280_pressure;Samples;Min_cycle;Max_cycle;Signal;HPM_P1;HPM_P2
2023/09/19 00:01:15;;;;;;;;;;;17.10;82.30;;;;;;4968231;28;19919;-81
2023/09/19 00:03:42;;;;;;;;;;;17.10;82.20;;;;;;4962913;28;19922;-82
2023/09/19 00:06:07;;;;;;;;;;;17.00;82.30;;;;;;4959723;29;20340;-81
2023/09/19 00:08:33;;;;;;;;;;;17.00;81.90;;;;;;4951755;28;19974;-82
2023/09/19 00:11:05;;;;;;;;;;;17.10;81.30;;;;;;4953019;28;20095;-81
2023/09/19 00:13:31;;;;;;;;;;;17.00;81.30;;;;;;4951335;28;19942;-81
2023/09/19 00:15:58;;;;;;;;;;;16.90;80.40;;;;;;4948908;29;19911;-81
2023/09/19 00:18:28;;;;;;;;;;;16.90;80.50;;;;;;4950781;29;19915;-81
2023/09/19 00:20:57;;;;;;;;;;;16.90;80.50;;;;;;4952918;29;19921;-81
2023/09/19 00:23:22;;;;;;;;;;;16.80;80.00;;;;;;4954314;28;19918;-81
2023/09/19 00:25:48;;;;;;;;;;;16.80;80.30;;;;;;4956763;29;20001;-81
2023/09/19 00:28:16;;;;;;;;;;;16.80;80.40;;;;;;4955172;28;19926;-81
2023/09/19 00:30:45;;;;;;;;;;;16.80;80.40;;;;;;4952512;28;19914;-81
2023/09/19 00:33:16;;;;;;;;;;;16.80;81.00;;;;;;4950838;28;20288;-81
2023/09/19 00:35:48;;;;;;;;;;;16.80;81.10;;;;;;4949815;29;19921;-82
2023/09/19 00:38:15;;;;;;;;;;;16.70;81.10;;;;;;4952445;28;19927;-81
2023/09/19 00:40:43;;;;;;;;;;;16.70;81.00;;;;;;4955548;29;19910;-81
2023/09/19 00:43:09;;;;;;;;;;;16.70;81.30;;;;;;4967667;28;19920;-81
2023/09/19 00:45:36;;;;;;;;;;;16.60;81.40;;;;;;4950241;28;19915;-81
2023/09/19 00:48:03;;;;;;;;;;;16.70;81.10;;;;;;4946981;29;19914;-81
2023/09/19 00:50:29;;;;;;;;;;;16.60;81.70;;;;;;4956603;29;19997;-82
2023/09/19 00:52:58;;;;;;;;;;;16.60;81.40;;;;;;4952709;29;20395;-81
2023/09/19 00:55:24;;;;;;;;;;;16.60;81.30;;;;;;4951401;28;19918;-81
2023/09/19 00:57:49;;;;;;;;;;;16.60;81.50;;;;;;4952361;29;19911;-82
2023/09/19 01:00:15;;;;;;;;;;;16.60;80.80;;;;;;4955694;29;19915;-81
2023/09/19 01:02:42;;;;;;;;;;;16.60;80.50;;;;;;4955859;29;19910;-81
2023/09/19 01:05:08;;;;;;;;;;;16.60;80.30;;;;;;4950830;28;19942;-81
2023/09/19 01:07:34;;;;;;;;;;;16.50;80.40;;;;;;4954439;28;20021;-81
2023/09/19 01:10:00;;;;;;;;;;;16.50;80.60;;;;;;4953641;29;19970;-81
2023/09/19 01:12:33;;;;;;;;;;;16.50;80.30;;;;;;4954275;28;19989;-81
2023/09/19 01:15:06;;;;;;;;;;;16.40;80.40;;;;;;4961970;29;19945;-81
2023/09/19 01:17:42;;;;;;;;;;;16.40;80.10;;;;;;4970246;28;19922;-81
2023/09/19 01:20:21;;;;;;;;;;;16.40;80.60;;;;;;4959200;28;20017;-81
2023/09/19 01:23:05;;;;;;;;;;;16.40;80.30;;;;;;4953189;28;19914;-81
2023/09/19 01:25:43;;;;;;;;;;;16.40;80.10;;;;;;4942883;29;20435;-81
2023/09/19 01:28:27;;;;;;;;;;;16.30;80.20;;;;;;4944734;28;19926;-81
2023/09/19 01:30:58;;;;;;;;;;;16.20;80.30;;;;;;4953190;29;20037;-81
2023/09/19 01:33:25;;;;;;;;;;;16.30;79.70;;;;;;4952009;28;20345;-81
2023/09/19 01:35:52;;;;;;;;;;;16.30;80.10;;;;;;4953886;28;20384;-81
2023/09/19 01:38:19;;;;;;;;;;;16.20;80.10;;;;;;4954213;29;19918;-82
2023/09/19 01:40:52;;;;;;;;;;;16.30;80.00;;;;;;4948834;28;20624;-82
2023/09/19 01:43:23;;;;;;;;;;;16.30;80.10;;;;;;4955669;29;19922;-82
2023/09/19 01:46:08;;;;;;;;;;;16.20;80.20;;;;;;4948939;28;19977;-81
2023/09/19 01:48:49;;;;;;;;;;;16.20;80.10;;;;;;4952618;28;19922;-81
2023/09/19 01:51:26;;;;;;;;;;;16.10;80.40;;;;;;4944669;28;19918;-81
2023/09/19 01:54:03;;;;;;;;;;;16.10;80.70;;;;;;4950482;29;20376;-82
2023/09/19 01:56:32;;;;;;;;;;;16.10;80.70;;;;;;4946845;29;19996;-81
2023/09/19 01:59:03;;;;;;;;;;;16.10;80.70;;;;;;4955123;28;19926;-82
2023/09/19 02:01:29;;;;;;;;;;;16.10;80.80;;;;;;4956380;29;19911;-82
2023/09/19 02:03:56;;;;;;;;;;;16.10;80.30;;;;;;4949557;29;20397;-82
2023/09/19 02:06:21;;;;;;;;;;;16.10;80.00;;;;;;4947392;28;19926;-82
2023/09/19 02:08:47;;;;;;;;;;;16.10;80.10;;;;;;4953429;29;19918;-82
2023/09/19 02:11:13;;;;;;;;;;;16.00;80.20;;;;;;4947804;28;19922;-82
2023/09/19 02:13:39;;;;;;;;;;;16.10;80.10;;;;;;4950517;29;19958;-81
2023/09/19 02:16:05;;;;;;;;;;;16.10;79.70;;;;;;4958838;29;19902;-81
2023/09/19 02:18:30;;;;;;;;;;;16.10;79.50;;;;;;4963166;29;19918;-82
2023/09/19 02:20:57;;;;;;;;;;;16.00;79.30;;;;;;4947385;28;19919;-82
2023/09/19 02:23:23;;;;;;;;;;;16.00;79.40;;;;;;4945897;29;19915;-81
2023/09/19 02:25:54;;;;;;;;;;;16.00;79.70;;;;;;4953336;28;20299;-82
2023/09/19 02:28:20;;;;;;;;;;;15.90;79.70;;;;;;4948639;29;19914;-82
2023/09/19 02:30:48;;;;;;;;;;;16.00;79.60;;;;;;4951941;28;19915;-82
2023/09/19 02:33:14;;;;;;;;;;;15.80;80.00;;;;;;4951272;28;19914;-81
2023/09/19 02:35:40;;;;;;;;;;;15.90;79.40;;;;;;4974724;29;20988;-81
2023/09/19 02:38:07;;;;;;;;;;;16.00;79.10;;;;;;4974231;29;19924;-82
2023/09/19 02:40:35;;;;;;;;;;;15.90;79.10;;;;;;4958131;28;19918;-82
2023/09/19 02:43:01;;;;;;;;;;;15.90;79.00;;;;;;4956870;28;19917;-82
2023/09/19 02:45:27;;;;;;;;;;;15.90;79.30;;;;;;4958056;28;19974;-82
2023/09/19 02:47:52;;;;;;;;;;;15.80;79.00;;;;;;4958952;29;19953;-82
2023/09/19 02:50:18;;;;;;;;;;;15.90;79.10;;;;;;4948195;29;19915;-81
2023/09/19 02:52:44;;;;;;;;;;;15.90;79.20;;;;;;4954088;28;19923;-82
2023/09/19 02:55:11;;;;;;;;;;;15.80;79.50;;;;;;4955942;29;20269;-81
2023/09/19 02:57:40;;;;;;;;;;;15.70;79.40;;;;;;4955455;29;20258;-81
2023/09/19 03:00:07;;;;;;;;;;;15.80;79.90;;;;;;4953067;28;19915;-81
2023/09/19 03:02:34;;;;;;;;;;;15.80;79.60;;;;;;4955597;28;19915;-81
2023/09/19 03:05:00;;;;;;;;;;;15.70;79.60;;;;;;4955089;28;19915;-82
2023/09/19 03:07:25;;;;;;;;;;;15.70;79.80;;;;;;4956803;29;19926;-82
2023/09/19 03:09:52;;;;;;;;;;;15.70;79.90;;;;;;4959483;28;19922;-82
2023/09/19 03:12:18;;;;;;;;;;;15.70;79.90;;;;;;4956902;29;19914;-82
2023/09/19 03:14:43;;;;;;;;;;;15.60;79.60;;;;;;4959861;29;19925;-82
2023/09/19 03:17:09;;;;;;;;;;;15.70;79.40;;;;;;4949231;29;19925;-82
2023/09/19 03:19:34;;;;;;;;;;;15.60;79.20;;;;;;4954602;28;19925;-81
2023/09/19 03:22:00;;;;;;;;;;;15.70;78.90;;;;;;4952181;28;20009;-82
2023/09/19 03:24:26;;;;;;;;;;;15.70;78.70;;;;;;4955951;28;19962;-82
2023/09/19 03:26:52;;;;;;;;;;;15.60;78.50;;;;;;4955468;28;19939;-82
2023/09/19 03:29:18;;;;;;;;;;;15.60;78.20;;;;;;4958059;29;20399;-81
2023/09/19 03:31:43;;;;;;;;;;;15.60;78.00;;;;;;4956306;28;19997;-82
2023/09/19 03:34:09;;;;;;;;;;;15.60;77.70;;;;;;4957063;28;19914;-82
2023/09/19 03:36:34;;;;;;;;;;;15.60;77.10;;;;;;4950185;28;20273;-82
2023/09/19 03:39:00;;;;;;;;;;;15.60;77.30;;;;;;4955444;28;19914;-82
2023/09/19 03:41:26;;;;;;;;;;;15.60;77.10;;;;;;4954365;29;20364;-82
2023/09/19 03:43:51;;;;;;;;;;;15.60;76.40;;;;;;4956451;28;20368;-82
2023/09/19 03:46:17;;;;;;;;;;;15.60;76.20;;;;;;4952092;28;20380;-82
2023/09/19 03:48:42;;;;;;;;;;;15.60;76.60;;;;;;4956817;29;19946;-82
2023/09/19 03:51:08;;;;;;;;;;;15.50;76.40;;;;;;4956237;29;19986;-82
2023/09/19 03:53:33;;;;;;;;;;;15.60;76.40;;;;;;4957549;29;19925;-82
2023/09/19 03:56:00;;;;;;;;;;;15.50;76.30;;;;;;4955998;28;20443;-82
2023/09/19 03:58:25;;;;;;;;;;;15.50;76.60;;;;;;4956643;29;19920;-82
2023/09/19 04:00:54;;;;;;;;;;;15.50;76.40;;;;;;4955467;29;19911;-82
2023/09/19 04:03:20;;;;;;;;;;;15.60;76.30;;;;;;4954667;28;19954;-82
2023/09/19 04:05:47;;;;;;;;;;;15.50;76.20;;;;;;4952909;28;19915;-82
2023/09/19 04:08:13;;;;;;;;;;;15.50;76.50;;;;;;4949170;28;19994;-82
2023/09/19 04:10:41;;;;;;;;;;;15.40;76.20;;;;;;4956698;28;20018;-82
2023/09/19 04:13:07;;;;;;;;;;;15.50;76.00;;;;;;4959782;29;19926;-82
2023/09/19 04:15:33;;;;;;;;;;;15.50;76.20;;;;;;4944515;29;19926;-82
2023/09/19 04:17:58;;;;;;;;;;;15.50;76.30;;;;;;4953391;28;21475;-81
2023/09/19 04:20:23;;;;;;;;;;;15.40;76.10;;;;;;4948261;28;19922;-81
2023/09/19 04:22:49;;;;;;;;;;;15.50;76.30;;;;;;4941353;28;19915;-81
2023/09/19 04:25:15;;;;;;;;;;;15.50;76.30;;;;;;4942898;28;20009;-81
2023/09/19 04:27:43;;;;;;;;;;;15.40;76.40;;;;;;4941705;29;20070;-82
2023/09/19 04:30:12;;;;;;;;;;;15.50;76.00;;;;;;4961240;28;19922;-81
2023/09/19 04:32:40;;;;;;;;;;;15.50;76.00;;;;;;4966128;28;19926;-83
2023/09/19 04:35:08;;;;;;;;;;;15.50;75.80;;;;;;4950202;28;20303;-81
2023/09/19 04:37:38;;;;;;;;;;;15.50;75.90;;;;;;4948121;29;19915;-82
2023/09/19 04:40:35;;;;;;;;;;;15.50;76.00;;;;;;4977662;23;20397;-84
2023/09/19 04:43:01;;;;;;;;;;;15.40;76.20;;;;;;4943306;28;19914;-85
2023/09/19 04:45:27;;;;;;;;;;;15.40;76.20;;;;;;4964839;28;19921;-85
2023/09/19 04:47:53;;;;;;;;;;;15.40;76.30;;;;;;4973051;28;19914;-86
2023/09/19 04:50:19;;;;;;;;;;;15.40;76.10;;;;;;4967780;28;19977;-86
2023/09/19 04:52:44;;;;;;;;;;;15.30;77.00;;;;;;4971678;28;19965;-87
2023/09/19 04:55:19;;;;;;;;;;;15.30;76.70;;;;;;4985617;28;19937;-86
2023/09/19 04:57:52;;;;;;;;;;;15.40;76.60;;;;;;4973987;28;19918;-86
2023/09/19 05:00:24;;;;;;;;;;;15.40;76.50;;;;;;4972411;28;20443;-87
2023/09/19 05:03:21;;;;;;;;;;;;;;;;;;;;;
2023/09/19 05:09:00;;;;;;;;;;;15.40;76.40;;;;;;4906257;28;19925;-84
2023/09/19 05:11:26;;;;;;;;;;;15.50;76.30;;;;;;4942872;28;19938;-85
2023/09/19 05:13:52;;;;;;;;;;;15.30;76.60;;;;;;4970862;28;19921;-84
2023/09/19 05:16:17;;;;;;;;;;;15.20;77.40;;;;;;4967550;28;20001;-85
2023/09/19 05:18:43;;;;;;;;;;;15.10;77.80;;;;;;4970594;28;20012;-84
2023/09/19 05:21:08;;;;;;;;;;;15.10;77.90;;;;;;4966715;28;19957;-84
2023/09/19 05:23:34;;;;;;;;;;;15.10;78.10;;;;;;4966742;28;19915;-85
2023/09/19 05:26:00;;;;;;;;;;;15.10;78.10;;;;;;4965390;28;19969;-85
2023/09/19 05:28:26;;;;;;;;;;;15.10;78.40;;;;;;4966341;28;19919;-84
2023/09/19 05:30:55;;;;;;;;;;;15.10;78.50;;;;;;4963339;28;20009;-85
2023/09/19 05:33:31;;;;;;;;;;;15.10;78.50;;;;;;4962466;28;19923;-90
2023/09/19 05:36:23;;;;;;;;;;;15.10;78.70;;;;;;4955722;28;20369;-87
2023/09/19 05:39:00;;;;;;;;;;;15.10;78.50;;;;;;4967108;28;20000;-85
2023/09/19 05:41:25;;;;;;;;;;;15.20;78.20;;;;;;4969662;28;19957;-85
2023/09/19 05:43:51;;;;;;;;;;;15.20;78.10;;;;;;4967012;28;20388;-86
2023/09/19 05:46:19;;;;;;;;;;;15.30;78.10;;;;;;4968413;28;20399;-85
2023/09/19 05:55:29;;;;;;;;;;;15.20;78.10;;;;;;4968185;28;20067;-85
2023/09/19 05:57:55;;;;;;;;;;;15.30;77.90;;;;;;4968197;28;20009;-85
2023/09/19 06:03:36;;;;;;;;;;;15.30;77.60;;;;;;4935609;29;19921;-83
2023/09/19 06:06:06;;;;;;;;;;;15.40;77.30;;;;;;4967426;28;19914;-84
2023/09/19 06:11:35;;;;;;;;;;;15.40;77.30;;;;;;4970479;28;19920;-83
2023/09/19 06:14:02;;;;;;;;;;;15.50;77.10;;;;;;4962747;28;19914;-83
2023/09/19 06:16:32;;;;;;;;;;;15.50;77.10;;;;;;4975230;28;19964;-83
2023/09/19 06:18:59;;;;;;;;;;;15.60;76.80;;;;;;4972177;28;19918;-84
2023/09/19 06:21:26;;;;;;;;;;;15.60;76.70;;;;;;4976348;28;19915;-84
2023/09/19 06:23:52;;;;;;;;;;;15.60;76.70;;;;;;4991132;28;20387;-84
2023/09/19 06:26:17;;;;;;;;;;;15.60;76.50;;;;;;4983145;28;19929;-84
2023/09/19 06:28:43;;;;;;;;;;;15.60;76.70;;;;;;4987041;28;19922;-84
2023/09/19 06:31:09;;;;;;;;;;;15.60;76.70;;;;;;4977734;28;19921;-84
2023/09/19 06:33:39;;;;;;;;;;;15.70;76.50;;;;;;4980700;28;19910;-85
2023/09/19 06:36:07;;;;;;;;;;;15.70;76.30;;;;;;4975421;28;20418;-85
2023/09/19 06:38:36;;;;;;;;;;;15.70;76.10;;;;;;4978858;28;19910;-85
2023/09/19 06:41:04;;;;;;;;;;;15.70;76.40;;;;;;4970730;28;19918;-84
2023/09/19 06:43:30;;;;;;;;;;;15.80;75.80;;;;;;4991957;28;19914;-84
2023/09/19 06:45:57;;;;;;;;;;;15.80;76.10;;;;;;4972439;28;19918;-85
2023/09/19 06:48:24;;;;;;;;;;;15.80;75.60;;;;;;4968081;28;19922;-84
2023/09/19 06:50:50;;;;;;;;;;;15.80;75.90;;;;;;4974243;28;19910;-84
2023/09/19 06:53:16;;;;;;;;;;;15.90;75.60;;;;;;4971321;28;19915;-84
2023/09/19 06:55:43;;;;;;;;;;;15.90;75.90;;;;;;4973837;28;19911;-84
2023/09/19 06:58:10;;;;;;;;;;;15.80;75.70;;;;;;4970941;28;19949;-84
2023/09/19 07:00:36;;;;;;;;;;;15.90;76.00;;;;;;4969253;28;19965;-83
2023/09/19 07:03:05;;;;;;;;;;;15.90;75.60;;;;;;4970786;28;19914;-84
2023/09/19 07:05:31;;;;;;;;;;;16.00;75.70;;;;;;4970721;28;19914;-84
2023/09/19 07:08:02;;;;;;;;;;;16.00;75.50;;;;;;4971958;28;19918;-86
2023/09/19 07:10:28;;;;;;;;;;;16.00;75.40;;;;;;4988281;28;19922;-85
2023/09/19 07:13:03;;;;;;;;;;;16.00;75.40;;;;;;4974914;28;20302;-86
2023/09/19 07:15:33;;;;;;;;;;;16.00;75.50;;;;;;4973555;28;19914;-86
2023/09/19 07:17:59;;;;;;;;;;;16.00;75.50;;;;;;4973777;28;19918;-86
2023/09/19 07:20:26;;;;;;;;;;;16.00;75.80;;;;;;4972250;28;20380;-86
2023/09/19 07:22:52;;;;;;;;;;;16.10;76.00;;;;;;4974550;28;19914;-86
2023/09/19 07:25:17;;;;;;;;;;;16.10;75.80;;;;;;4974843;28;19918;-86
2023/09/19 07:27:43;;;;;;;;;;;16.10;75.60;;;;;;4976421;28;20012;-86
2023/09/19 07:30:10;;;;;;;;;;;16.20;75.70;;;;;;4972572;28;19914;-84
2023/09/19 07:32:38;;;;;;;;;;;16.20;75.60;;;;;;4974297;28;20016;-85
2023/09/19 07:35:05;;;;;;;;;;;16.30;76.00;;;;;;4974535;28;19914;-84
2023/09/19 07:37:33;;;;;;;;;;;16.40;75.20;;;;;;4974362;28;19949;-85
2023/09/19 07:39:59;;;;;;;;;;;16.50;75.30;;;;;;4977360;23;19927;-81
2023/09/19 07:42:25;;;;;;;;;;;16.50;75.60;;;;;;4953828;29;20001;-82
2023/09/19 07:44:51;;;;;;;;;;;16.50;75.20;;;;;;4949737;28;19922;-82
2023/09/19 07:47:17;;;;;;;;;;;16.40;75.40;;;;;;4950588;28;19954;-81
2023/09/19 07:49:42;;;;;;;;;;;16.40;75.50;;;;;;4952569;28;19918;-81
2023/09/19 07:52:09;;;;;;;;;;;16.50;75.50;;;;;;4951092;29;19915;-82
2023/09/19 07:54:35;;;;;;;;;;;16.50;75.40;;;;;;5075052;23;19926;-82
2023/09/19 07:57:01;;;;;;;;;;;16.50;75.40;;;;;;4980497;28;19914;-81
2023/09/19 07:59:27;;;;;;;;;;;16.60;75.30;;;;;;4973646;28;19961;-83
2023/09/19 08:01:52;;;;;;;;;;;16.60;75.20;;;;;;4973905;29;19958;-83
2023/09/19 08:04:19;;;;;;;;;;;16.50;75.30;;;;;;4952967;29;20406;-83
2023/09/19 08:06:44;;;;;;;;;;;16.60;75.30;;;;;;4957526;29;20277;-83
2023/09/19 08:09:11;;;;;;;;;;;16.60;75.50;;;;;;4981638;23;19933;-85
2023/09/19 08:11:36;;;;;;;;;;;16.70;75.20;;;;;;4970657;28;20391;-85
2023/09/19 08:14:02;;;;;;;;;;;16.80;75.20;;;;;;4964929;28;19915;-87
2023/09/19 08:16:28;;;;;;;;;;;16.80;74.80;;;;;;4972362;28;19914;-86
2023/09/19 08:18:55;;;;;;;;;;;16.80;74.70;;;;;;4971658;28;19927;-87
2023/09/19 08:21:24;;;;;;;;;;;16.90;74.80;;;;;;4973351;28;19960;-86
2023/09/19 08:23:49;;;;;;;;;;;17.00;74.50;;;;;;4973195;28;20372;-85
2023/09/19 08:26:15;;;;;;;;;;;16.90;74.90;;;;;;4969606;28;19918;-87
2023/09/19 08:28:41;;;;;;;;;;;17.00;74.90;;;;;;4966829;28;19918;-86
2023/09/19 08:31:08;;;;;;;;;;;17.10;74.70;;;;;;4972677;28;20008;-86
2023/09/19 08:33:35;;;;;;;;;;;17.10;74.20;;;;;;4982294;28;19925;-85
2023/09/19 08:36:00;;;;;;;;;;;17.10;74.10;;;;;;4972609;28;20257;-85
2023/09/19 08:38:29;;;;;;;;;;;17.10;74.30;;;;;;4972168;28;19922;-85
2023/09/19 08:40:59;;;;;;;;;;;17.10;73.40;;;;;;4972729;28;19910;-86
2023/09/19 08:43:25;;;;;;;;;;;17.10;73.90;;;;;;4968515;28;19918;-85
2023/09/19 08:45:58;;;;;;;;;;;17.10;73.40;;;;;;4961473;28;19966;-87
2023/09/19 08:49:06;;;;;;;;;;;17.10;73.40;;;;;;4970337;28;19929;-88
2023/09/19 08:51:55;;;;;;;;;;;17.10;73.50;;;;;;4961677;28;19918;-86
2023/09/19 08:54:32;;;;;;;;;;;17.10;73.10;;;;;;4947374;28;19915;-86
2023/09/19 08:57:24;;;;;;;;;;;;;;;;;;;;;
2023/09/19 09:00:00;;;;;;;;;;;17.30;72.90;;;;;;4969052;28;19921;-86
2023/09/19 09:06:06;;;;;;;;;;;17.30;73.20;;;;;;4970747;28;19947;-86
2023/09/19 09:11:43;;;;;;;;;;;17.60;72.50;;;;;;4975152;28;19918;-85
2023/09/19 09:14:35;;;;;;;;;;;17.60;71.40;;;;;;4971537;28;20437;-85
2023/09/19 09:18:03;;;;;;;;;;;17.70;71.30;;;;;;4971633;28;20373;-86
2023/09/19 09:20:13;;;;;;;;;;;17.60;71.60;;;;;;4972046;28;19965;-86
2023/09/19 09:23:03;;;;;;;;;;;17.60;71.00;;;;;;4960210;28;19918;-85
2023/09/19 09:32:33;;;;;;;;;;;17.90;70.60;;;;;;4919753;29;20277;-86
2023/09/19 09:34:59;;;;;;;;;;;17.90;69.90;;;;;;4911205;29;19926;-86
2023/09/19 09:42:42;;;;;;;;;;;18.10;69.30;;;;;;4982418;28;19977;-84
2023/09/19 09:45:17;;;;;;;;;;;18.10;68.50;;;;;;4978635;28;20008;-85
2023/09/19 09:47:49;;;;;;;;;;;18.10;68.80;;;;;;4988810;28;19918;-84
2023/09/19 09:53:29;;;;;;;;;;;18.10;68.60;;;;;;4982411;28;19920;-84
2023/09/19 09:56:05;;;;;;;;;;;18.00;67.30;;;;;;4984420;28;20012;-82
2023/09/19 09:58:32;;;;;;;;;;;18.10;67.20;;;;;;4988366;28;19917;-83
2023/09/19 10:01:01;;;;;;;;;;;18.20;67.30;;;;;;4983434;28;19989;-84
2023/09/19 10:03:32;;;;;;;;;;;18.20;66.60;;;;;;4980803;28;20403;-83
2023/09/19 10:05:58;;;;;;;;;;;18.20;66.40;;;;;;4984836;28;20380;-83
2023/09/19 10:08:30;;;;;;;;;;;18.20;67.40;;;;;;4979755;28;19921;-83
2023/09/19 10:11:04;;;;;;;;;;;18.30;66.90;;;;;;4981709;28;19946;-82
2023/09/19 10:13:31;;;;;;;;;;;18.50;67.00;;;;;;4981384;28;19918;-83
2023/09/19 10:15:58;;;;;;;;;;;18.50;66.30;;;;;;4982582;28;19925;-83
2023/09/19 10:18:25;;;;;;;;;;;18.60;65.00;;;;;;4984978;28;20324;-83
2023/09/19 10:21:08;;;;;;;;;;;18.60;65.70;;;;;;4982981;28;19910;-82
2023/09/19 10:23:35;;;;;;;;;;;18.80;64.90;;;;;;4975755;28;20284;-83
2023/09/19 10:26:01;;;;;;;;;;;18.80;64.30;;;;;;4988164;28;19925;-82
2023/09/19 10:28:28;;;;;;;;;;;18.80;65.30;;;;;;4985338;28;19914;-82
2023/09/19 10:30:56;;;;;;;;;;;18.70;65.10;;;;;;4979419;28;20404;-83
2023/09/19 10:33:22;;;;;;;;;;;18.70;66.10;;;;;;4982707;28;19959;-83
2023/09/19 10:35:49;;;;;;;;;;;18.70;66.10;;;;;;4982223;28;19920;-82
2023/09/19 10:38:20;;;;;;;;;;;18.80;66.00;;;;;;4981976;28;19914;-82
2023/09/19 10:40:51;;;;;;;;;;;18.80;64.90;;;;;;4985510;28;19942;-83
2023/09/19 10:43:18;;;;;;;;;;;18.80;65.10;;;;;;4986227;28;19910;-82
2023/09/19 10:45:43;;;;;;;;;;;18.80;65.10;;;;;;4985236;28;19910;-83
2023/09/19 10:48:10;;;;;;;;;;;18.90;64.10;;;;;;4984499;28;19942;-82
2023/09/19 10:50:44;;;;;;;;;;;19.00;63.20;;;;;;4984128;28;19910;-86
2023/09/19 10:53:11;;;;;;;;;;;19.10;62.70;;;;;;4974802;28;20404;-85
2023/09/19 10:55:37;;;;;;;;;;;19.10;62.60;;;;;;4978175;28;19914;-86
2023/09/19 10:58:14;;;;;;;;;;;19.30;62.50;;;;;;4976093;28;20026;-85
2023/09/19 11:00:55;;;;;;;;;;;19.40;62.50;;;;;;4979284;28;19922;-85
2023/09/19 11:03:23;;;;;;;;;;;19.40;62.30;;;;;;4982998;28;19910;-85
2023/09/19 11:06:13;;;;;;;;;;;19.50;61.00;;;;;;4981847;28;19910;-86
2023/09/19 11:08:57;;;;;;;;;;;19.50;61.40;;;;;;4973638;28;20543;-85
2023/09/19 11:11:42;;;;;;;;;;;19.60;61.10;;;;;;4978464;28;19977;-86
2023/09/19 11:14:27;;;;;;;;;;;19.60;61.40;;;;;;4979657;28;19911;-86
2023/09/19 11:17:11;;;;;;;;;;;19.70;60.30;;;;;;4979384;28;19915;-85
2023/09/19 11:20:02;;;;;;;;;;;19.70;60.50;;;;;;4982037;28;19918;-84
2023/09/19 11:22:56;;;;;;;;;;;19.50;60.00;;;;;;4981705;28;19918;-86
2023/09/19 11:25:33;;;;;;;;;;;19.50;61.00;;;;;;4980993;28;19910;-86
2023/09/19 11:28:32;;;;;;;;;;;19.50;61.00;;;;;;4981682;28;19950;-85
2023/09/19 11:30:59;;;;;;;;;;;19.50;61.60;;;;;;4977046;28;19925;-87
2023/09/19 11:33:33;;;;;;;;;;;19.60;60.80;;;;;;4980164;28;19918;-84
2023/09/19 11:36:05;;;;;;;;;;;19.60;59.80;;;;;;4982550;28;19910;-85
2023/09/19 11:41:28;;;;;;;;;;;19.60;60.30;;;;;;4981745;28;19946;-86
2023/09/19 11:44:04;;;;;;;;;;;19.60;60.70;;;;;;4981688;28;19922;-85
2023/09/19 11:47:03;;;;;;;;;;;19.60;60.90;;;;;;4980127;28;19925;-84
2023/09/19 11:49:32;;;;;;;;;;;19.70;60.20;;;;;;4980496;28;19925;-85
2023/09/19 11:52:04;;;;;;;;;;;19.80;60.20;;;;;;4970537;28;19933;-88
2023/09/19 11:54:41;;;;;;;;;;;19.80;59.10;;;;;;4973053;28;19918;-85
2023/09/19 11:57:07;;;;;;;;;;;19.80;58.50;;;;;;4981610;28;19977;-85
2023/09/19 11:59:33;;;;;;;;;;;19.80;59.10;;;;;;4982388;28;19910;-84
2023/09/19 12:02:10;;;;;;;;;;;19.80;59.90;;;;;;4981418;28;19921;-84
2023/09/19 12:04:45;;;;;;;;;;;19.90;60.30;;;;;;4977517;28;19964;-85
2023/09/19 12:07:16;;;;;;;;;;;20.10;58.20;;;;;;4979546;28;19910;-85
2023/09/19 12:12:53;;;;;;;;;;;20.10;58.30;;;;;;4969882;28;19938;-87
2023/09/19 12:15:34;;;;;;;;;;;20.20;59.30;;;;;;4983497;28;19957;-82
2023/09/19 12:18:23;;;;;;;;;;;20.10;58.70;;;;;;4979835;28;19929;-84
2023/09/19 12:21:22;;;;;;;;;;;20.10;57.90;;;;;;4913796;29;19915;-85
2023/09/19 12:24:13;;;;;;;;;;;20.20;58.10;;;;;;5191059;23;20126;-87
2023/09/19 12:26:43;;;;;;;;;;;20.10;57.40;;;;;;4971425;28;19965;-85
2023/09/19 12:29:13;;;;;;;;;;;20.10;57.50;;;;;;4959954;28;19927;-85
2023/09/19 12:31:48;;;;;;;;;;;20.10;58.10;;;;;;4958133;28;19940;-85
2023/09/19 12:34:16;;;;;;;;;;;20.10;57.30;;;;;;4955519;29;19915;-84
2023/09/19 12:36:41;;;;;;;;;;;20.10;57.40;;;;;;4953312;29;19937;-85
2023/09/19 12:39:09;;;;;;;;;;;20.20;56.90;;;;;;4954903;28;19989;-85
2023/09/19 12:44:41;;;;;;;;;;;20.10;57.10;;;;;;4935082;29;19922;-85
2023/09/19 12:47:43;;;;;;;;;;;20.10;57.60;;;;;;4932463;29;19922;-87
2023/09/19 12:50:29;;;;;;;;;;;20.10;57.30;;;;;;4934183;28;19930;-86
2023/09/19 12:53:32;;;;;;;;;;;20.00;57.20;;;;;;4951695;29;19926;-88
2023/09/19 12:55:58;;;;;;;;;;;20.10;57.30;;;;;;4897922;29;19950;-87
2023/09/19 12:58:38;;;;;;;;;;;20.10;57.30;;;;;;4961166;28;19910;-89
2023/09/19 13:01:19;;;;;;;;;;;20.20;57.20;;;;;;4959127;29;20403;-87
2023/09/19 13:04:19;;;;;;;;;;;20.20;56.80;;;;;;4959891;29;20009;-89
2023/09/19 13:07:05;;;;;;;;;;;20.30;56.00;;;;;;4954100;29;19914;-86
2023/09/19 13:09:51;;;;;;;;;;;20.40;55.60;;;;;;4952715;28;19950;-87
2023/09/19 13:12:44;;;;;;;;;;;20.40;55.90;;;;;;4952292;29;19969;-89
2023/09/19 13:15:29;;;;;;;;;;;20.50;56.30;;;;;;4948492;28;19915;-90
2023/09/19 13:18:16;;;;;;;;;;;20.60;55.90;;;;;;4961076;23;19925;-85
2023/09/19 13:20:49;;;;;;;;;;;20.60;54.50;;;;;;4949581;28;19955;-86
2023/09/19 13:23:30;;;;;;;;;;;20.60;54.40;;;;;;4946689;29;20395;-87
2023/09/19 13:25:57;;;;;;;;;;;20.50;54.80;;;;;;4955802;29;19991;-88
2023/09/19 13:28:28;;;;;;;;;;;20.50;55.20;;;;;;4960761;28;19965;-89
2023/09/19 13:31:03;;;;;;;;;;;20.50;53.70;;;;;;4953047;29;20021;-86
2023/09/19 13:33:50;;;;;;;;;;;20.50;54.20;;;;;;4949150;28;19923;-88
2023/09/19 13:36:24;;;;;;;;;;;20.50;54.70;;;;;;4948074;29;20289;-86
2023/09/19 13:38:49;;;;;;;;;;;20.50;54.00;;;;;;4947445;29;19914;-87
2023/09/19 13:41:16;;;;;;;;;;;20.50;53.20;;;;;;4952373;29;19914;-85
2023/09/19 13:46:35;;;;;;;;;;;20.60;54.10;;;;;;4936883;28;19915;-87
2023/09/19 13:49:03;;;;;;;;;;;20.70;53.80;;;;;;4951982;29;20384;-87
2023/09/19 13:51:31;;;;;;;;;;;20.80;53.40;;;;;;4944977;29;19915;-88
2023/09/19 13:53:57;;;;;;;;;;;20.80;53.30;;;;;;4946076;29;20413;-88
2023/09/19 13:56:22;;;;;;;;;;;20.70;54.00;;;;;;4946006;29;19951;-85
2023/09/19 13:58:53;;;;;;;;;;;20.80;54.70;;;;;;4951447;29;19914;-90
2023/09/19 14:01:21;;;;;;;;;;;20.80;54.50;;;;;;4946837;28;19918;-86
2023/09/19 14:03:49;;;;;;;;;;;20.80;53.70;;;;;;4952426;28;19919;-85
2023/09/19 14:06:15;;;;;;;;;;;20.70;53.80;;;;;;4952152;29;20005;-86
2023/09/19 14:08:40;;;;;;;;;;;20.80;54.40;;;;;;4953293;28;19978;-86
2023/09/19 14:11:06;;;;;;;;;;;20.80;54.30;;;;;;4959085;29;19921;-86
2023/09/19 14:13:32;;;;;;;;;;;20.80;53.80;;;;;;4957692;29;19910;-86
2023/09/19 14:15:58;;;;;;;;;;;20.80;53.90;;;;;;4957425;29;20571;-86
2023/09/19 14:18:23;;;;;;;;;;;20.80;54.30;;;;;;4959665;29;20371;-85
2023/09/19 14:20:53;;;;;;;;;;;20.80;54.10;;;;;;4960930;28;19922;-86
2023/09/19 14:23:18;;;;;;;;;;;20.90;54.60;;;;;;4951231;28;20399;-86
2023/09/19 14:25:43;;;;;;;;;;;20.80;54.40;;;;;;4949174;28;19922;-86
2023/09/19 14:28:09;;;;;;;;;;;20.70;54.40;;;;;;4962361;28;19919;-86
2023/09/19 14:30:36;;;;;;;;;;;20.70;54.30;;;;;;4946580;28;20040;-86
2023/09/19 14:33:02;;;;;;;;;;;20.70;54.80;;;;;;4938390;29;19910;-88
2023/09/19 14:35:28;;;;;;;;;;;20.60;55.00;;;;;;4948166;29;20390;-88
2023/09/19 14:37:54;;;;;;;;;;;20.60;55.40;;;;;;4945496;29;19919;-88
2023/09/19 14:40:22;;;;;;;;;;;20.60;55.60;;;;;;4953046;28;19910;-89
2023/09/19 14:42:48;;;;;;;;;;;20.60;55.80;;;;;;4951384;28;19922;-88
2023/09/19 14:45:17;;;;;;;;;;;20.60;55.70;;;;;;4955578;28;19918;-91
2023/09/19 14:47:43;;;;;;;;;;;20.60;55.30;;;;;;4953901;29;19923;-87
2023/09/19 14:50:09;;;;;;;;;;;20.50;56.30;;;;;;4956252;28;19942;-87
2023/09/19 14:52:36;;;;;;;;;;;20.60;56.30;;;;;;4956336;29;20002;-86
2023/09/19 14:55:01;;;;;;;;;;;20.60;56.20;;;;;;4955814;29;19915;-88
2023/09/19 14:57:27;;;;;;;;;;;20.60;56.20;;;;;;4949785;29;19930;-89
2023/09/19 14:59:52;;;;;;;;;;;20.50;56.50;;;;;;4953027;29;19918;-87
2023/09/19 15:02:19;;;;;;;;;;;20.50;56.60;;;;;;4952478;29;19963;-86
2023/09/19 15:04:46;;;;;;;;;;;20.50;56.90;;;;;;4958198;29;19930;-86
2023/09/19 15:07:12;;;;;;;;;;;20.50;57.30;;;;;;4948906;29;19971;-89
2023/09/19 15:09:38;;;;;;;;;;;20.50;57.40;;;;;;4953097;29;20013;-86
2023/09/19 15:12:06;;;;;;;;;;;20.40;57.80;;;;;;4954546;29;19996;-90
2023/09/19 15:14:32;;;;;;;;;;;20.50;58.00;;;;;;4950695;29;19923;-88
2023/09/19 15:16:57;;;;;;;;;;;20.30;57.50;;;;;;4952145;29;20020;-88
2023/09/19 15:19:23;;;;;;;;;;;20.30;57.80;;;;;;4954646;29;19919;-89
2023/09/19 15:21:49;;;;;;;;;;;20.20;57.70;;;;;;4955772;29;20388;-86
2023/09/19 15:24:14;;;;;;;;;;;20.20;58.10;;;;;;4949756;29;19915;-85
2023/09/19 15:26:40;;;;;;;;;;;20.10;59.00;;;;;;4944178;29;20324;-84